Terminal Aerodrome Forecast
Issued by NWS Detroit/Pontiac, MI

Home | Current Version | Previous Version | Text Only | Print | Product List | Glossary On
Versions: 1 2 3 4 5 6 7 8 9 10 11 12 13 14 15 16 17 18 19 20 21 22 23 24 25 26 27 28 29 30 31
000
FTUS43 KDTX 311313 AAA
TAFDTW
TAF AMD
KDTW 311313Z 3113/0118 26005KT 5SM BR SCT015 BKN030
     FM311400 26005KT 6SM BR SCT015 SCT030
      TEMPO 3114/3115 BKN030
     FM311600 25005KT P6SM FEW045
     FM010900 00000KT 3SM BR SKC
     FM011300 24004KT P6SM SKC=

USA.gov is the U.S. government's official web portal to all federal, state and local government web resources and services.